Terminal Aerodrome Forecast
Issued by NWS

Home | Current Version | Previous Version | Text Only | Print | Product List | Glossary On
Versions: 1 2 3 4 5 6 7 8 9 10 11 12
000
FTUS42 KMHX 242300
TAFOAJ
TAF
KOAJ 242334Z 2500/2524 16005KT P6SM SKC
     FM250900 15004KT P6SM BKN020 BKN035
     FM251400 19015G25KT P6SM VCSH SCT020 BKN035
      AMD LTD TO CLD VIS AND WIND=

USA.gov is the U.S. government's official web portal to all federal, state and local government web resources and services.